sensor_id;sensor_type;location;lat;lon;timestamp;pressure;altitude;pressure_sealevel;temperature;humidity
50852;BME280;43953;45.508;-122.806;2023-03-18T00:00:17;101013.78;;;18.27;29.70
50852;BME280;43953;45.508;-122.806;2023-03-18T00:00:49;101011.06;;;18.27;29.74
50852;BME280;43953;45.508;-122.806;2023-03-18T00:01:21;101015.41;;;18.28;29.49
50852;BME280;43953;45.508;-122.806;2023-03-18T00:01:53;101012.97;;;18.26;29.80
50852;BME280;43953;45.508;-122.806;2023-03-18T00:02:25;101008.34;;;18.27;29.94
50852;BME280;43953;45.508;-122.806;2023-03-18T00:02:57;101012.69;;;18.28;29.68
50852;BME280;43953;45.508;-122.806;2023-03-18T00:03:30;101009.97;;;18.28;30.09
50852;BME280;43953;45.508;-122.806;2023-03-18T00:04:02;101009.97;;;18.28;30.16
50852;BME280;43953;45.508;-122.806;2023-03-18T00:04:35;101005.59;;;18.27;30.29
50852;BME280;43953;45.508;-122.806;2023-03-18T00:05:08;101006.19;;;18.29;30.49
50852;BME280;43953;45.508;-122.806;2023-03-18T00:05:41;101008.91;;;18.29;30.62
50852;BME280;43953;45.508;-122.806;2023-03-18T00:06:15;101007.81;;;18.30;29.96
50852;BME280;43953;45.508;-122.806;2023-03-18T00:06:48;101009.72;;;18.29;29.86
50852;BME280;43953;45.508;-122.806;2023-03-18T00:07:20;101010.81;;;18.28;29.81
50852;BME280;43953;45.508;-122.806;2023-03-18T00:07:52;101008.34;;;18.27;29.62
50852;BME280;43953;45.508;-122.806;2023-03-18T00:08:24;101002.31;;;18.25;29.62
50852;BME280;43953;45.508;-122.806;2023-03-18T00:08:56;101010.47;;;18.25;29.70
50852;BME280;43953;45.508;-122.806;2023-03-18T00:09:28;101010.47;;;18.25;29.95
50852;BME280;43953;45.508;-122.806;2023-03-18T00:10:00;101007.19;;;18.23;30.13
50852;BME280;43953;45.508;-122.806;2023-03-18T00:10:33;101004.47;;;18.23;30.34
50852;BME280;43953;45.508;-122.806;2023-03-18T00:11:06;101010.97;;;18.22;30.30
50852;BME280;43953;45.508;-122.806;2023-03-18T00:11:38;101008.25;;;18.22;30.47
50852;BME280;43953;45.508;-122.806;2023-03-18T00:12:11;101009.34;;;18.21;30.27
50852;BME280;43953;45.508;-122.806;2023-03-18T00:12:43;101006.63;;;18.21;30.45
50852;BME280;43953;45.508;-122.806;2023-03-18T00:13:15;101002.81;;;18.22;30.55
50852;BME280;43953;45.508;-122.806;2023-03-18T00:13:49;101004.72;;;18.21;30.58
50852;BME280;43953;45.508;-122.806;2023-03-18T00:14:20;101010.97;;;18.22;30.55
50852;BME280;43953;45.508;-122.806;2023-03-18T00:14:52;101007.44;;;18.21;30.55
50852;BME280;43953;45.508;-122.806;2023-03-18T00:15:24;101003.91;;;18.21;30.59
50852;BME280;43953;45.508;-122.806;2023-03-18T00:15:56;101002.00;;;18.21;30.52
50852;BME280;43953;45.508;-122.806;2023-03-18T00:16:28;100998.44;;;18.21;30.51
50852;BME280;43953;45.508;-122.806;2023-03-18T00:16:59;100997.63;;;18.20;30.53
50852;BME280;43953;45.508;-122.806;2023-03-18T00:17:31;101000.59;;;18.18;30.62
50852;BME280;43953;45.508;-122.806;2023-03-18T00:18:03;101001.69;;;18.17;30.61
50852;BME280;43953;45.508;-122.806;2023-03-18T00:18:35;101001.69;;;18.17;30.53
50852;BME280;43953;45.508;-122.806;2023-03-18T00:19:07;101000.59;;;18.18;30.56
50852;BME280;43953;45.508;-122.806;2023-03-18T00:19:38;100996.22;;;18.17;30.49
50852;BME280;43953;45.508;-122.806;2023-03-18T00:20:11;100999.78;;;18.18;30.62
50852;BME280;43953;45.508;-122.806;2023-03-18T00:20:43;101003.81;;;18.15;30.26
50852;BME280;43953;45.508;-122.806;2023-03-18T00:21:15;100998.94;;;18.17;30.18
50852;BME280;43953;45.508;-122.806;2023-03-18T00:21:47;101001.91;;;18.16;30.22
50852;BME280;43953;45.508;-122.806;2023-03-18T00:22:19;100995.09;;;18.13;30.38
50852;BME280;43953;45.508;-122.806;2023-03-18T00:22:50;101000.53;;;18.13;30.21
50852;BME280;43953;45.508;-122.806;2023-03-18T00:23:22;100999.97;;;18.11;30.27
50852;BME280;43953;45.508;-122.806;2023-03-18T00:23:54;101001.06;;;18.10;30.29
50852;BME280;43953;45.508;-122.806;2023-03-18T00:24:28;100998.31;;;18.10;30.50
50852;BME280;43953;45.508;-122.806;2023-03-18T00:25:01;101000.47;;;18.08;30.38
50852;BME280;43953;45.508;-122.806;2023-03-18T00:25:34;101000.47;;;18.08;30.56
50852;BME280;43953;45.508;-122.806;2023-03-18T00:26:06;101007.00;;;18.07;30.48
50852;BME280;43953;45.508;-122.806;2023-03-18T00:26:39;100994.44;;;18.06;30.25
50852;BME280;43953;45.508;-122.806;2023-03-18T00:27:10;101002.59;;;18.06;30.44
50852;BME280;43953;45.508;-122.806;2023-03-18T00:27:42;101000.97;;;18.05;30.27
50852;BME280;43953;45.508;-122.806;2023-03-18T00:28:14;100997.66;;;18.03;30.33
50852;BME280;43953;45.508;-122.806;2023-03-18T00:28:45;100997.44;;;18.05;30.29
50852;BME280;43953;45.508;-122.806;2023-03-18T00:29:17;100998.47;;;18.04;30.12
50852;BME280;43953;45.508;-122.806;2023-03-18T00:29:49;100994.94;;;18.03;29.93
50852;BME280;43953;45.508;-122.806;2023-03-18T00:30:21;100998.47;;;18.04;30.20
50852;BME280;43953;45.508;-122.806;2023-03-18T00:30:54;100994.34;;;18.01;29.96
50852;BME280;43953;45.508;-122.806;2023-03-18T00:31:28;100990.59;;;18.02;30.20
50852;BME280;43953;45.508;-122.806;2023-03-18T00:32:00;100998.16;;;18.00;30.15
50852;BME280;43953;45.508;-122.806;2023-03-18T00:32:32;100997.09;;;18.01;30.28
50852;BME280;43953;45.508;-122.806;2023-03-18T00:33:04;100999.81;;;18.01;30.13
50852;BME280;43953;45.508;-122.806;2023-03-18T00:33:38;100996.53;;;17.99;30.23
50852;BME280;43953;45.508;-122.806;2023-03-18T00:34:16;101001.97;;;17.99;30.16
50852;BME280;43953;45.508;-122.806;2023-03-18T00:34:48;100994.88;;;17.98;30.10
50852;BME280;43953;45.508;-122.806;2023-03-18T00:35:20;100993.22;;;17.97;30.19
50852;BME280;43953;45.508;-122.806;2023-03-18T00:35:52;100992.41;;;17.96;30.19
50852;BME280;43953;45.508;-122.806;2023-03-18T00:36:24;100991.59;;;17.96;30.09
50852;BME280;43953;45.508;-122.806;2023-03-18T00:36:56;100998.94;;;17.95;30.34
50852;BME280;43953;45.508;-122.806;2023-03-18T00:37:28;100993.72;;;17.94;30.32
50852;BME280;43953;45.508;-122.806;2023-03-18T00:38:00;100994.81;;;17.93;30.12
50852;BME280;43953;45.508;-122.806;2023-03-18T00:38:34;100995.88;;;17.92;30.48
50852;BME280;43953;45.508;-122.806;2023-03-18T00:39:06;100995.06;;;17.91;30.48
50852;BME280;43953;45.508;-122.806;2023-03-18T00:39:39;100999.69;;;17.91;30.64
50852;BME280;43953;45.508;-122.806;2023-03-18T00:40:14;100995.06;;;17.91;30.67
50852;BME280;43953;45.508;-122.806;2023-03-18T00:40:51;100997.78;;;17.91;30.60
50852;BME280;43953;45.508;-122.806;2023-03-18T00:41:41;101003.50;;;17.90;30.57
50852;BME280;43953;45.508;-122.806;2023-03-18T00:42:13;100996.13;;;17.90;30.71
50852;BME280;43953;45.508;-122.806;2023-03-18T00:42:45;101003.50;;;17.90;30.68
50852;BME280;43953;45.508;-122.806;2023-03-18T00:43:29;101001.00;;;17.88;30.98
50852;BME280;43953;45.508;-122.806;2023-03-18T00:44:04;100992.81;;;17.88;30.91
50852;BME280;43953;45.508;-122.806;2023-03-18T00:44:36;100996.63;;;17.87;31.00
50852;BME280;43953;45.508;-122.806;2023-03-18T00:45:09;100997.47;;;17.88;30.95
50852;BME280;43953;45.508;-122.806;2023-03-18T00:45:42;101002.91;;;17.88;31.03
50852;BME280;43953;45.508;-122.806;2023-03-18T00:46:50;101000.19;;;17.88;30.89
50852;BME280;43953;45.508;-122.806;2023-03-18T00:47:22;100996.88;;;17.86;30.78
50852;BME280;43953;45.508;-122.806;2023-03-18T00:47:53;100998.53;;;17.87;30.69
50852;BME280;43953;45.508;-122.806;2023-03-18T00:48:25;100995.25;;;17.85;30.95
50852;BME280;43953;45.508;-122.806;2023-03-18T00:49:00;100996.06;;;17.85;31.11
50852;BME280;43953;45.508;-122.806;2023-03-18T00:49:32;100999.03;;;17.84;31.34
50852;BME280;43953;45.508;-122.806;2023-03-18T00:50:05;100991.94;;;17.83;31.21
50852;BME280;43953;45.508;-122.806;2023-03-18T00:50:38;100998.19;;;17.83;31.43
50852;BME280;43953;45.508;-122.806;2023-03-18T00:51:11;100995.47;;;17.83;31.32
50852;BME280;43953;45.508;-122.806;2023-03-18T00:51:44;100991.94;;;17.83;31.15
50852;BME280;43953;45.508;-122.806;2023-03-18T00:52:16;100990.28;;;17.82;30.74
50852;BME280;43953;45.508;-122.806;2023-03-18T00:52:49;100988.66;;;17.81;30.65
50852;BME280;43953;45.508;-122.806;2023-03-18T00:53:21;100992.19;;;17.81;30.98
50852;BME280;43953;45.508;-122.806;2023-03-18T00:53:57;100988.66;;;17.81;30.83
50852;BME280;43953;45.508;-122.806;2023-03-18T00:54:29;100989.47;;;17.81;30.92
50852;BME280;43953;45.508;-122.806;2023-03-18T00:55:01;100994.09;;;17.81;31.25
50852;BME280;43953;45.508;-122.806;2023-03-18T00:55:32;100989.72;;;17.80;30.90
50852;BME280;43953;45.508;-122.806;2023-03-18T00:56:05;100990.78;;;17.79;30.97
50852;BME280;43953;45.508;-122.806;2023-03-18T00:56:37;100994.59;;;17.78;30.79
50852;BME280;43953;45.508;-122.806;2023-03-18T00:57:09;100996.25;;;17.79;31.21
50852;BME280;43953;45.508;-122.806;2023-03-18T00:57:41;100995.63;;;17.77;30.84
50852;BME280;43953;45.508;-122.806;2023-03-18T00:58:13;100994.00;;;17.76;31.01
50852;BME280;43953;45.508;-122.806;2023-03-18T00:58:46;100995.63;;;17.77;31.14
50852;BME280;43953;45.508;-122.806;2023-03-18T00:59:18;100991.25;;;17.76;31.01
50852;BME280;43953;45.508;-122.806;2023-03-18T00:59:50;100988.53;;;17.76;31.05
50852;BME280;43953;45.508;-122.806;2023-03-18T01:00:22;100987.72;;;17.75;31.14
50852;BME280;43953;45.508;-122.806;2023-03-18T01:00:56;100994.00;;;17.76;31.06
50852;BME280;43953;45.508;-122.806;2023-03-18T01:01:28;100982.50;;;17.73;31.20
50852;BME280;43953;45.508;-122.806;2023-03-18T01:02:00;100985.81;;;17.76;31.30
50852;BME280;43953;45.508;-122.806;2023-03-18T01:02:31;100982.50;;;17.73;31.36
50852;BME280;43953;45.508;-122.806;2023-03-18T01:03:04;100989.59;;;17.74;31.28
50852;BME280;43953;45.508;-122.806;2023-03-18T01:03:37;100991.50;;;17.74;31.44
50852;BME280;43953;45.508;-122.806;2023-03-18T01:04:09;100991.50;;;17.74;31.29
50852;BME280;43953;45.508;-122.806;2023-03-18T01:04:42;100987.13;;;17.73;31.32
50852;BME280;43953;45.508;-122.806;2023-03-18T01:05:15;100986.31;;;17.72;31.30
50852;BME280;43953;45.508;-122.806;2023-03-18T01:05:46;100985.50;;;17.72;31.32
50852;BME280;43953;45.508;-122.806;2023-03-18T01:06:21;100985.50;;;17.72;31.40
50852;BME280;43953;45.508;-122.806;2023-03-18T01:06:53;100990.94;;;17.72;31.43
50852;BME280;43953;45.508;-122.806;2023-03-18T01:07:24;100985.50;;;17.72;31.56
50852;BME280;43953;45.508;-122.806;2023-03-18T01:07:56;100994.22;;;17.74;31.58
50852;BME280;43953;45.508;-122.806;2023-03-18T01:08:29;100989.59;;;17.74;31.40
50852;BME280;43953;45.508;-122.806;2023-03-18T01:09:02;100993.41;;;17.73;31.26
50852;BME280;43953;45.508;-122.806;2023-03-18T01:09:35;100998.03;;;17.73;31.30
50852;BME280;43953;45.508;-122.806;2023-03-18T01:10:08;100989.03;;;17.72;31.16
50852;BME280;43953;45.508;-122.806;2023-03-18T01:10:40;100985.72;;;17.70;31.24
50852;BME280;43953;45.508;-122.806;2023-03-18T01:11:11;100988.47;;;17.70;31.02
50852;BME280;43953;45.508;-122.806;2023-03-18T01:11:43;100985.72;;;17.70;31.00
50852;BME280;43953;45.508;-122.806;2023-03-18T01:12:15;100996.03;;;17.68;31.20
50852;BME280;43953;45.508;-122.806;2023-03-18T01:12:47;100990.59;;;17.68;30.92
50852;BME280;43953;45.508;-122.806;2023-03-18T01:13:18;100983.28;;;17.69;31.22
50852;BME280;43953;45.508;-122.806;2023-03-18T01:13:51;100984.31;;;17.68;30.88
50852;BME280;43953;45.508;-122.806;2023-03-18T01:14:23;100983.50;;;17.67;30.85
50852;BME280;43953;45.508;-122.806;2023-03-18T01:14:54;100985.41;;;17.67;30.99
50852;BME280;43953;45.508;-122.806;2023-03-18T01:15:26;100984.59;;;17.66;30.93
50852;BME280;43953;45.508;-122.806;2023-03-18T01:15:58;100984.00;;;17.64;31.02
50852;BME280;43953;45.508;-122.806;2023-03-18T01:16:30;100986.97;;;17.63;31.14
50852;BME280;43953;45.508;-122.806;2023-03-18T01:17:04;100982.38;;;17.63;31.45
50852;BME280;43953;45.508;-122.806;2023-03-18T01:17:36;100981.53;;;17.63;31.21
50852;BME280;43953;45.508;-122.806;2023-03-18T01:18:09;100978.78;;;17.63;31.43
50852;BME280;43953;45.508;-122.806;2023-03-18T01:18:44;100984.25;;;17.63;31.62
50852;BME280;43953;45.508;-122.806;2023-03-18T01:19:16;100977.97;;;17.62;31.44
50852;BME280;43953;45.508;-122.806;2023-03-18T01:19:48;100982.88;;;17.60;31.52
50852;BME280;43953;45.508;-122.806;2023-03-18T01:20:20;100983.69;;;17.61;31.07
50852;BME280;43953;45.508;-122.806;2023-03-18T01:20:53;100984.75;;;17.60;31.19
50852;BME280;43953;45.508;-122.806;2023-03-18T01:21:25;100974.13;;;17.58;31.04
50852;BME280;43953;45.508;-122.806;2023-03-18T01:21:58;100976.03;;;17.58;31.05
50852;BME280;43953;45.508;-122.806;2023-03-18T01:22:29;100978.97;;;17.56;30.91
50852;BME280;43953;45.508;-122.806;2023-03-18T01:23:01;100980.06;;;17.55;31.14
50852;BME280;43953;45.508;-122.806;2023-03-18T01:23:33;100980.06;;;17.55;31.01
50852;BME280;43953;45.508;-122.806;2023-03-18T01:24:06;100981.16;;;17.54;31.13
50852;BME280;43953;45.508;-122.806;2023-03-18T01:24:37;100987.63;;;17.53;31.26
50852;BME280;43953;45.508;-122.806;2023-03-18T01:25:11;100987.91;;;17.51;31.05
50852;BME280;43953;45.508;-122.806;2023-03-18T01:25:43;100988.97;;;17.50;30.94
50852;BME280;43953;45.508;-122.806;2023-03-18T01:26:15;100989.22;;;17.49;31.08
50852;BME280;43953;45.508;-122.806;2023-03-18T01:26:48;100987.56;;;17.48;31.20
50852;BME280;43953;45.508;-122.806;2023-03-18T01:27:20;100987.81;;;17.46;31.12
50852;BME280;43953;45.508;-122.806;2023-03-18T01:27:52;100988.91;;;17.45;31.22
50852;BME280;43953;45.508;-122.806;2023-03-18T01:28:24;100983.69;;;17.44;31.31
50852;BME280;43953;45.508;-122.806;2023-03-18T01:28:57;100989.13;;;17.44;31.20
50852;BME280;43953;45.508;-122.806;2023-03-18T01:29:29;100980.38;;;17.42;31.36
50852;BME280;43953;45.508;-122.806;2023-03-18T01:30:02;100986.69;;;17.42;31.31
50852;BME280;43953;45.508;-122.806;2023-03-18T01:30:34;100984.19;;;17.41;31.69
50852;BME280;43953;45.508;-122.806;2023-03-18T01:31:06;100986.09;;;17.40;31.47
50852;BME280;43953;45.508;-122.806;2023-03-18T01:31:38;100988.00;;;17.40;31.49
50852;BME280;43953;45.508;-122.806;2023-03-18T01:32:11;100985.50;;;17.38;31.54
50852;BME280;43953;45.508;-122.806;2023-03-18T01:32:43;100995.56;;;17.38;31.41
50852;BME280;43953;45.508;-122.806;2023-03-18T01:33:15;100990.94;;;17.38;31.38
50852;BME280;43953;45.508;-122.806;2023-03-18T01:33:47;100990.13;;;17.38;31.43
50852;BME280;43953;45.508;-122.806;2023-03-18T01:34:20;100989.81;;;17.34;31.60
50852;BME280;43953;45.508;-122.806;2023-03-18T01:34:51;100992.25;;;17.36;31.52
50852;BME280;43953;45.508;-122.806;2023-03-18T01:35:23;100990.84;;;17.33;31.28
50852;BME280;43953;45.508;-122.806;2023-03-18T01:35:58;100994.66;;;17.32;31.43
50852;BME280;43953;45.508;-122.806;2023-03-18T01:36:30;100992.19;;;17.31;31.57
50852;BME280;43953;45.508;-122.806;2023-03-18T01:37:01;100990.53;;;17.29;31.60
50852;BME280;43953;45.508;-122.806;2023-03-18T01:37:33;100992.69;;;17.27;31.53
50852;BME280;43953;45.508;-122.806;2023-03-18T01:38:05;100989.13;;;17.27;31.78
50852;BME280;43953;45.508;-122.806;2023-03-18T01:38:37;101001.34;;;17.24;31.86
50852;BME280;43953;45.508;-122.806;2023-03-18T01:39:09;100987.75;;;17.24;31.96
50852;BME280;43953;45.508;-122.806;2023-03-18T01:39:41;101003.00;;;17.25;32.14
50852;BME280;43953;45.508;-122.806;2023-03-18T01:40:13;100991.28;;;17.25;32.11
50852;BME280;43953;45.508;-122.806;2023-03-18T01:40:46;100997.56;;;17.25;32.27
50852;BME280;43953;45.508;-122.806;2023-03-18T01:41:18;100994.81;;;17.25;31.94
50852;BME280;43953;45.508;-122.806;2023-03-18T01:41:49;100995.91;;;17.24;32.22
50852;BME280;43953;45.508;-122.806;2023-03-18T01:42:21;100994.25;;;17.23;32.27
50852;BME280;43953;45.508;-122.806;2023-03-18T01:43:01;101000.19;;;17.20;32.27
50852;BME280;43953;45.508;-122.806;2023-03-18T01:43:37;100995.56;;;17.21;32.21
50852;BME280;43953;45.508;-122.806;2023-03-18T01:44:19;101003.16;;;17.19;32.38
50852;BME280;43953;45.508;-122.806;2023-03-18T01:45:19;101000.66;;;17.17;32.25
50852;BME280;43953;45.508;-122.806;2023-03-18T01:45:54;101000.34;;;17.14;32.25
50852;BME280;43953;45.508;-122.806;2023-03-18T01:46:36;101003.28;;;17.12;32.34
50852;BME280;43953;45.508;-122.806;2023-03-18T01:47:08;101000.00;;;17.10;32.18
50852;BME280;43953;45.508;-122.806;2023-03-18T01:47:41;101004.38;;;17.11;32.34
50852;BME280;43953;45.508;-122.806;2023-03-18T01:48:17;101002.47;;;17.12;32.39
50852;BME280;43953;45.508;-122.806;2023-03-18T01:48:49;100997.84;;;17.12;32.23
50852;BME280;43953;45.508;-122.806;2023-03-18T01:49:30;101005.19;;;17.12;32.34
50852;BME280;43953;45.508;-122.806;2023-03-18T01:50:05;101001.06;;;17.09;32.35
50852;BME280;43953;45.508;-122.806;2023-03-18T01:50:37;101000.25;;;17.09;32.18
50852;BME280;43953;45.508;-122.806;2023-03-18T01:51:09;101001.31;;;17.08;32.37
50852;BME280;43953;45.508;-122.806;2023-03-18T01:51:45;100999.66;;;17.06;32.38
50852;BME280;43953;45.508;-122.806;2023-03-18T01:52:21;101003.44;;;17.05;32.42
50852;BME280;43953;45.508;-122.806;2023-03-18T01:53:04;100993.06;;;17.02;32.46
50852;BME280;43953;45.508;-122.806;2023-03-18T01:53:41;100998.50;;;17.02;32.53
50852;BME280;43953;45.508;-122.806;2023-03-18T01:54:14;101002.31;;;17.01;32.46
50852;BME280;43953;45.508;-122.806;2023-03-18T01:55:02;100999.25;;;16.98;32.70
50852;BME280;43953;45.508;-122.806;2023-03-18T01:55:35;101010.13;;;16.98;32.59
50852;BME280;43953;45.508;-122.806;2023-03-18T01:56:08;100997.59;;;16.97;32.36
50852;BME280;43953;45.508;-122.806;2023-03-18T01:56:42;101004.09;;;16.96;32.74
50852;BME280;43953;45.508;-122.806;2023-03-18T01:57:16;101006.81;;;16.96;32.77
50852;BME280;43953;45.508;-122.806;2023-03-18T01:57:49;101002.47;;;16.95;32.57
50852;BME280;43953;45.508;-122.806;2023-03-18T01:58:25;100996.44;;;16.93;32.67
50852;BME280;43953;45.508;-122.806;2023-03-18T01:58:59;101005.41;;;16.93;32.59
50852;BME280;43953;45.508;-122.806;2023-03-18T01:59:33;101007.53;;;16.91;32.68
50852;BME280;43953;45.508;-122.806;2023-03-18T02:00:09;101009.44;;;16.91;32.68
50852;BME280;43953;45.508;-122.806;2023-03-18T02:00:45;101015.16;;;16.89;32.62
50852;BME280;43953;45.508;-122.806;2023-03-18T02:01:26;101012.66;;;16.88;32.76
50852;BME280;43953;45.508;-122.806;2023-03-18T02:02:09;101012.06;;;16.86;32.85
50852;BME280;43953;45.508;-122.806;2023-03-18T02:02:43;101017.50;;;16.86;33.06
50852;BME280;43953;45.508;-122.806;2023-03-18T02:03:16;101007.69;;;16.85;33.14
50852;BME280;43953;45.508;-122.806;2023-03-18T02:03:49;101012.31;;;16.84;33.13
50852;BME280;43953;45.508;-122.806;2023-03-18T02:04:25;101011.50;;;16.83;33.44
50852;BME280;43953;45.508;-122.806;2023-03-18T02:05:02;101012.31;;;16.84;33.51
50852;BME280;43953;45.508;-122.806;2023-03-18T02:05:36;101015.03;;;16.84;33.37
50852;BME280;43953;45.508;-122.806;2023-03-18T02:06:08;101011.50;;;16.83;33.30
50852;BME280;43953;45.508;-122.806;2023-03-18T02:06:42;101016.94;;;16.83;33.47
50852;BME280;43953;45.508;-122.806;2023-03-18T02:07:23;101014.44;;;16.82;33.24
50852;BME280;43953;45.508;-122.806;2023-03-18T02:07:55;101012.81;;;16.81;33.33
50852;BME280;43953;45.508;-122.806;2023-03-18T02:08:27;101005.97;;;16.78;33.35
50852;BME280;43953;45.508;-122.806;2023-03-18T02:09:00;101011.63;;;16.77;33.23
50852;BME280;43953;45.508;-122.806;2023-03-18T02:09:33;101011.63;;;16.77;33.11
50852;BME280;43953;45.508;-122.806;2023-03-18T02:10:18;101009.97;;;16.76;33.08
50852;BME280;43953;45.508;-122.806;2023-03-18T02:10:50;101011.25;;;16.73;33.43
50852;BME280;43953;45.508;-122.806;2023-03-18T02:11:23;101010.69;;;16.71;33.34
50852;BME280;43953;45.508;-122.806;2023-03-18T02:11:56;101013.41;;;16.71;33.42
50852;BME280;43953;45.508;-122.806;2023-03-18T02:12:31;101014.47;;;16.70;33.47
50852;BME280;43953;45.508;-122.806;2023-03-18T02:13:06;101004.66;;;16.69;33.47
50852;BME280;43953;45.508;-122.806;2023-03-18T02:13:41;101015.53;;;16.69;33.31
50852;BME280;43953;45.508;-122.806;2023-03-18T02:14:14;101006.78;;;16.67;33.31
50852;BME280;43953;45.508;-122.806;2023-03-18T02:14:47;101004.06;;;16.67;33.37
50852;BME280;43953;45.508;-122.806;2023-03-18T02:15:21;101013.31;;;16.66;33.29
50852;BME280;43953;45.508;-122.806;2023-03-18T02:16:17;101006.69;;;16.62;33.83
50852;BME280;43953;45.508;-122.806;2023-03-18T02:17:05;101011.56;;;16.60;33.76
50852;BME280;43953;45.508;-122.806;2023-03-18T02:17:45;101010.75;;;16.59;33.79
50852;BME280;43953;45.508;-122.806;2023-03-18T02:18:26;101005.31;;;16.59;33.79
50852;BME280;43953;45.508;-122.806;2023-03-18T02:19:29;101009.88;;;16.59;33.77
50852;BME280;43953;45.508;-122.806;2023-03-18T02:22:12;101002.13;;;16.51;33.72
50852;BME280;43953;45.508;-122.806;2023-03-18T02:22:54;101008.63;;;16.50;33.62
50852;BME280;43953;45.508;-122.806;2023-03-18T02:25:27;101000.59;;;16.43;33.56
50852;BME280;43953;45.508;-122.806;2023-03-18T02:26:12;101001.91;;;16.41;33.62
50852;BME280;43953;45.508;-122.806;2023-03-18T02:27:24;101007.00;;;16.37;33.65
50852;BME280;43953;45.508;-122.806;2023-03-18T02:28:01;101007.00;;;16.37;33.77
50852;BME280;43953;45.508;-122.806;2023-03-18T02:28:34;101000.75;;;16.36;33.97
50852;BME280;43953;45.508;-122.806;2023-03-18T02:29:08;101009.47;;;16.38;33.91
50852;BME280;43953;45.508;-122.806;2023-03-18T02:29:42;101002.16;;;16.39;33.79
50852;BME280;43953;45.508;-122.806;2023-03-18T02:30:21;101003.22;;;16.38;34.24
50852;BME280;43953;45.508;-122.806;2023-03-18T02:30:57;101001.56;;;16.37;34.00
50852;BME280;43953;45.508;-122.806;2023-03-18T02:31:33;101003.47;;;16.36;33.80
50852;BME280;43953;45.508;-122.806;2023-03-18T02:32:07;101005.38;;;16.36;33.80
50852;BME280;43953;45.508;-122.806;2023-03-18T02:32:41;101001.81;;;16.35;33.57
50852;BME280;43953;45.508;-122.806;2023-03-18T02:33:15;101010.22;;;16.34;33.84
50852;BME280;43953;45.508;-122.806;2023-03-18T02:33:48;100999.56;;;16.32;33.93
50852;BME280;43953;45.508;-122.806;2023-03-18T02:34:22;101010.22;;;16.34;34.00
50852;BME280;43953;45.508;-122.806;2023-03-18T02:34:58;101005.00;;;16.32;33.98
50852;BME280;43953;45.508;-122.806;2023-03-18T02:35:33;101000.63;;;16.31;34.16
50852;BME280;43953;45.508;-122.806;2023-03-18T02:36:12;101007.16;;;16.30;33.80
50852;BME280;43953;45.508;-122.806;2023-03-18T02:36:45;100996.75;;;16.27;33.73
50852;BME280;43953;45.508;-122.806;2023-03-18T02:37:17;101008.44;;;16.28;33.74
50852;BME280;43953;45.508;-122.806;2023-03-18T02:37:49;101009.28;;;16.28;33.83
50852;BME280;43953;45.508;-122.806;2023-03-18T02:38:21;101007.63;;;16.27;33.81
50852;BME280;43953;45.508;-122.806;2023-03-18T02:38:54;101013.06;;;16.27;33.83
50852;BME280;43953;45.508;-122.806;2023-03-18T02:39:27;101010.56;;;16.26;33.96
50852;BME280;43953;45.508;-122.806;2023-03-18T02:40:21;101004.53;;;16.24;34.13
50852;BME280;43953;45.508;-122.806;2023-03-18T02:40:53;101005.63;;;16.23;33.58
50852;BME280;43953;45.508;-122.806;2023-03-18T02:41:31;101002.31;;;16.21;33.90
50852;BME280;43953;45.508;-122.806;2023-03-18T02:42:04;101007.75;;;16.21;33.97
50852;BME280;43953;45.508;-122.806;2023-03-18T02:42:35;101006.91;;;16.20;34.10
50852;BME280;43953;45.508;-122.806;2023-03-18T02:43:25;100997.34;;;16.18;33.99
50852;BME280;43953;45.508;-122.806;2023-03-18T02:43:57;101002.44;;;16.14;33.80
50852;BME280;43953;45.508;-122.806;2023-03-18T02:44:29;101002.69;;;16.12;33.92
50852;BME280;43953;45.508;-122.806;2023-03-18T02:45:01;100998.31;;;16.11;33.90
50852;BME280;43953;45.508;-122.806;2023-03-18T02:47:21;101002.56;;;16.07;34.00
50852;BME280;43953;45.508;-122.806;2023-03-18T02:47:53;100999.88;;;16.07;34.00
50852;BME280;43953;45.508;-122.806;2023-03-18T02:48:29;101002.56;;;16.07;34.12
50852;BME280;43953;45.508;-122.806;2023-03-18T02:49:05;101001.75;;;16.07;34.30
50852;BME280;43953;45.508;-122.806;2023-03-18T02:49:37;101004.47;;;16.07;34.27
50852;BME280;43953;45.508;-122.806;2023-03-18T02:50:10;101002.56;;;16.07;34.03
50852;BME280;43953;45.508;-122.806;2023-03-18T02:50:42;101000.09;;;16.06;33.99
50852;BME280;43953;45.508;-122.806;2023-03-18T02:51:15;101003.88;;;16.05;34.12
50852;BME280;43953;45.508;-122.806;2023-03-18T02:51:48;100999.53;;;16.04;34.36
50852;BME280;43953;45.508;-122.806;2023-03-18T02:52:20;101003.88;;;16.05;34.45
50852;BME280;43953;45.508;-122.806;2023-03-18T02:52:52;101006.59;;;16.05;34.37
50852;BME280;43953;45.508;-122.806;2023-03-18T02:53:24;101000.34;;;16.04;34.11
50852;BME280;43953;45.508;-122.806;2023-03-18T02:54:09;101002.22;;;16.04;34.14
50852;BME280;43953;45.508;-122.806;2023-03-18T02:54:42;101002.72;;;16.01;34.14
50852;BME280;43953;45.508;-122.806;2023-03-18T02:55:13;101000.00;;;16.01;34.17
50852;BME280;43953;45.508;-122.806;2023-03-18T02:55:45;101006.25;;;16.01;34.42
50852;BME280;43953;45.508;-122.806;2023-03-18T02:56:17;101008.16;;;16.01;34.75
50852;BME280;43953;45.508;-122.806;2023-03-18T02:56:50;101010.88;;;16.01;34.72
50852;BME280;43953;45.508;-122.806;2023-03-18T02:57:22;101006.25;;;16.01;34.45